Time;durP1;ratioP1;P1;durP2;ratioP2;P2;SDS_P1;SDS_P2;PMS_P1;PMS_P2;Temp;Humidity;BMP_temperature;BMP_pressure;BME280_temperature;BME280_humidity;BME280_pressure;Samples;Min_cycle;Max_cycle;Signal;HPM_P1;HPM_P2
2022/06/05 00:00:20;;;;;;;26.23;17.70;;;11.10;99.90;;;;;;4839596;29;20038;-86
2022/06/05 00:03:14;;;;;;;22.45;16.65;;;11.10;99.90;;;;;;4854564;29;20529;-86
2022/06/05 00:06:01;;;;;;;20.73;15.25;;;11.10;99.90;;;;;;4809864;29;20098;-86
2022/06/05 00:08:42;;;;;;;25.92;17.45;;;11.10;99.90;;;;;;4806560;29;20046;-86
2022/06/05 00:11:11;;;;;;;21.98;15.77;;;11.10;99.90;;;;;;4837670;29;20038;-86
2022/06/05 00:13:52;;;;;;;25.50;16.75;;;11.10;99.90;;;;;;4839547;29;20039;-86
2022/06/05 00:16:28;;;;;;;29.08;18.92;;;11.10;99.90;;;;;;4809155;29;20126;-86
2022/06/05 00:18:54;;;;;;;27.05;18.23;;;11.00;99.90;;;;;;4808810;29;20042;-86
2022/06/05 00:21:20;;;;;;;27.60;18.05;;;11.00;99.90;;;;;;4809569;29;20077;-86
2022/06/05 00:23:46;;;;;;;24.58;17.88;;;11.00;99.90;;;;;;4794036;29;20046;-86
2022/06/05 00:26:27;;;;;;;21.65;16.70;;;11.10;99.90;;;;;;4824359;29;20136;-86
2022/06/05 00:29:08;;;;;;;27.55;19.08;;;11.10;99.90;;;;;;4842183;29;20472;-86
2022/06/05 00:32:11;;;;;;;25.00;17.40;;;11.10;99.90;;;;;;4839501;29;20045;-86
2022/06/05 00:34:37;;;;;;;25.77;18.08;;;11.00;99.90;;;;;;4808242;29;20098;-86
2022/06/05 00:37:31;;;;;;;23.33;17.35;;;11.00;99.90;;;;;;4839412;29;20047;-86
2022/06/05 00:40:12;;;;;;;25.40;18.42;;;11.00;99.90;;;;;;4843185;29;20099;-86
2022/06/05 00:42:38;;;;;;;29.48;19.77;;;11.00;99.90;;;;;;4823635;29;20045;-86
2022/06/05 00:45:11;;;;;;;25.23;17.83;;;11.00;99.90;;;;;;4824874;29;20058;-86
2022/06/05 00:47:38;;;;;;;31.67;20.05;;;11.00;99.90;;;;;;4817848;29;20420;-86
2022/06/05 00:50:27;;;;;;;25.13;18.10;;;11.00;99.90;;;;;;4824247;29;20122;-86
2022/06/05 00:52:56;;;;;;;28.50;18.98;;;11.00;99.90;;;;;;4838832;29;20046;-86
2022/06/05 00:55:23;;;;;;;29.38;19.23;;;11.00;99.90;;;;;;4808051;29;20038;-86
2022/06/05 00:57:49;;;;;;;29.38;19.90;;;11.00;99.90;;;;;;4838523;29;20066;-86
2022/06/05 01:00:20;;;;;;;27.13;18.92;;;10.90;99.90;;;;;;4823822;29;20041;-86
2022/06/05 01:02:51;;;;;;;26.90;18.08;;;11.00;99.90;;;;;;4808013;29;20070;-85
2022/06/05 01:05:18;;;;;;;24.20;17.57;;;11.00;99.90;;;;;;4838590;29;20129;-86
2022/06/05 01:07:44;;;;;;;28.42;19.30;;;11.00;99.90;;;;;;4797876;29;20288;-86
2022/06/05 01:10:11;;;;;;;28.23;19.35;;;11.00;99.90;;;;;;4819867;29;20083;-86
2022/06/05 01:13:01;;;;;;;25.27;18.55;;;11.00;99.90;;;;;;4824890;29;20042;-86
2022/06/05 01:15:38;;;;;;;28.05;19.83;;;11.00;99.90;;;;;;4823971;29;20444;-86
2022/06/05 01:18:30;;;;;;;30.25;20.77;;;11.10;99.90;;;;;;4823151;29;20050;-86
2022/06/05 01:21:05;;;;;;;32.50;21.65;;;11.00;99.90;;;;;;4803383;29;20099;-85
2022/06/05 01:24:02;;;;;;;32.17;20.38;;;11.00;99.90;;;;;;4823346;29;20045;-85
2022/06/05 01:26:40;;;;;;;25.63;19.65;;;11.00;99.90;;;;;;4824177;29;20173;-85
2022/06/05 01:29:12;;;;;;;27.05;20.52;;;11.00;99.90;;;;;;4823076;29;20086;-86
2022/06/05 01:31:43;;;;;;;27.23;20.48;;;11.00;99.90;;;;;;4807815;29;20049;-86
2022/06/05 01:34:49;;;;;;;31.23;22.13;;;11.00;99.90;;;;;;4837362;29;20042;-85
2022/06/05 01:37:35;;;;;;;35.53;23.00;;;10.90;99.90;;;;;;4789826;29;20066;-85
2022/06/05 01:40:15;;;;;;;31.70;22.08;;;10.90;99.90;;;;;;4822713;29;20134;-85
2022/06/05 01:42:45;;;;;;;30.38;20.38;;;10.90;99.90;;;;;;4838244;29;20082;-85
2022/06/05 01:45:22;;;;;;;28.85;20.88;;;10.80;99.90;;;;;;4822945;29;20042;-85
2022/06/05 01:47:53;;;;;;;33.17;22.05;;;10.90;99.90;;;;;;4822724;29;20039;-85
2022/06/05 01:50:21;;;;;;;32.27;22.53;;;10.80;99.90;;;;;;4823367;29;20046;-85
2022/06/05 01:52:56;;;;;;;40.47;24.65;;;10.80;99.90;;;;;;4822632;29;20295;-85
2022/06/05 01:55:45;;;;;;;29.88;20.88;;;10.80;99.90;;;;;;4821875;29;20510;-85
2022/06/05 01:58:14;;;;;;;32.70;22.27;;;10.80;99.90;;;;;;4859338;29;20093;-85
2022/06/05 02:00:41;;;;;;;30.90;20.77;;;10.80;99.90;;;;;;4823357;29;20045;-85
2022/06/05 02:03:09;;;;;;;37.17;24.23;;;10.80;99.90;;;;;;4792834;29;20499;-85
2022/06/05 02:05:48;;;;;;;36.22;23.67;;;10.90;99.90;;;;;;4807817;29;20042;-85
2022/06/05 02:08:32;;;;;;;31.83;22.05;;;10.80;99.90;;;;;;4836598;29;20038;-85
2022/06/05 02:11:03;;;;;;;30.35;22.02;;;10.80;99.90;;;;;;4824600;29;20043;-86
2022/06/05 02:13:30;;;;;;;35.22;23.58;;;10.70;99.90;;;;;;4837923;29;20115;-86
2022/06/05 02:15:56;;;;;;;37.53;24.20;;;10.70;99.90;;;;;;4822725;29;20498;-86
2022/06/05 02:18:22;;;;;;;38.05;24.45;;;10.70;99.90;;;;;;4807043;29;20121;-86
2022/06/05 02:20:49;;;;;;;38.20;24.23;;;10.70;99.90;;;;;;4823119;29;20494;-86
2022/06/05 02:23:18;;;;;;;39.22;24.23;;;10.70;99.90;;;;;;4837840;29;20038;-86
2022/06/05 02:25:44;;;;;;;35.22;23.73;;;10.70;99.90;;;;;;4838329;29;20494;-85
2022/06/05 02:28:15;;;;;;;40.05;25.60;;;10.80;99.90;;;;;;4817426;29;20050;-85
2022/06/05 02:31:01;;;;;;;43.10;26.13;;;10.70;99.90;;;;;;4813112;29;20074;-85
2022/06/05 02:33:36;;;;;;;44.13;24.73;;;10.70;99.90;;;;;;4825996;29;20035;-85
2022/06/05 02:36:14;;;;;;;40.00;24.20;;;10.70;99.90;;;;;;4821608;29;20077;-85
2022/06/05 02:39:02;;;;;;;34.97;24.58;;;10.70;99.90;;;;;;4822778;29;20204;-85
2022/06/05 02:41:36;;;;;;;33.58;22.38;;;10.70;99.90;;;;;;4822887;29;20050;-85
2022/06/05 02:44:34;;;;;;;38.30;25.15;;;10.70;99.90;;;;;;4822343;29;20046;-85
2022/06/05 02:47:24;;;;;;;45.28;25.77;;;10.80;99.90;;;;;;4808799;29;20583;-85
2022/06/05 02:50:01;;;;;;;40.45;25.80;;;10.70;99.90;;;;;;4848542;29;20120;-85
2022/06/05 02:52:30;;;;;;;45.33;26.38;;;10.70;99.90;;;;;;4837693;29;20522;-85
2022/06/05 02:55:07;;;;;;;37.08;25.50;;;10.60;99.90;;;;;;4805923;29;20588;-85
2022/06/05 02:57:34;;;;;;;45.70;27.27;;;10.70;99.90;;;;;;4816119;29;20058;-85
2022/06/05 03:00:01;;;;;;;44.95;26.77;;;10.70;99.90;;;;;;4852769;29;20129;-85
2022/06/05 03:05:11;;;;;;;44.28;26.48;;;10.70;99.90;;;;;;4809011;29;20058;-85
2022/06/05 03:07:37;;;;;;;42.72;25.65;;;10.60;99.90;;;;;;4822233;29;20410;-86
2022/06/05 03:10:03;;;;;;;48.25;27.90;;;10.70;99.90;;;;;;4807030;29;20049;-86
2022/06/05 03:12:29;;;;;;;42.20;26.65;;;10.70;99.90;;;;;;4807169;29;20068;-86
2022/06/05 03:14:57;;;;;;;40.25;25.67;;;10.70;99.90;;;;;;4807301;29;20186;-86
2022/06/05 03:17:23;;;;;;;38.38;25.77;;;10.70;99.90;;;;;;4821470;29;20125;-86
2022/06/05 03:19:49;;;;;;;36.97;23.98;;;10.70;99.90;;;;;;4837241;29;20118;-86
2022/06/05 03:22:15;;;;;;;45.95;26.05;;;10.70;99.90;;;;;;4822339;29;20042;-86
2022/06/05 03:24:41;;;;;;;47.78;27.90;;;10.70;99.90;;;;;;4838751;29;20042;-86
2022/06/05 03:27:07;;;;;;;51.47;28.52;;;10.70;99.90;;;;;;4825483;29;20194;-86
2022/06/05 03:29:33;;;;;;;45.33;26.85;;;10.70;99.90;;;;;;4794813;29;20050;-86
2022/06/05 03:31:58;;;;;;;39.95;26.63;;;10.70;99.90;;;;;;4810377;29;20050;-86
2022/06/05 03:34:24;;;;;;;38.15;25.50;;;10.70;99.90;;;;;;4809009;29;20042;-86
2022/06/05 03:36:50;;;;;;;39.03;24.67;;;10.80;99.90;;;;;;4809848;29;20054;-85
2022/06/05 03:39:16;;;;;;;42.95;27.42;;;10.80;99.90;;;;;;4809654;29;20053;-85
2022/06/05 03:41:41;;;;;;;49.90;28.40;;;10.80;99.90;;;;;;4825287;29;20052;-85
2022/06/05 03:44:07;;;;;;;41.85;26.65;;;10.80;99.90;;;;;;4822176;29;20046;-85
2022/06/05 03:46:40;;;;;;;40.33;26.60;;;10.90;99.90;;;;;;4839336;29;20049;-85
2022/06/05 03:49:06;;;;;;;42.92;26.60;;;10.90;99.90;;;;;;4824145;29;20068;-86
2022/06/05 03:51:33;;;;;;;43.92;27.52;;;10.80;99.90;;;;;;4809681;29;20046;-86
2022/06/05 03:53:59;;;;;;;34.33;24.88;;;10.90;99.90;;;;;;4809554;29;20038;-86
2022/06/05 03:56:26;;;;;;;40.47;25.38;;;10.90;99.90;;;;;;4836400;29;20098;-86
2022/06/05 03:58:53;;;;;;;36.40;25.48;;;10.90;99.90;;;;;;4827699;29;20157;-86
2022/06/05 04:01:21;;;;;;;37.17;25.15;;;11.00;99.90;;;;;;4812466;29;20512;-86
2022/06/05 04:03:47;;;;;;;37.92;24.42;;;11.00;99.90;;;;;;4812069;29;20414;-86
2022/06/05 04:06:15;;;;;;;41.85;26.42;;;11.10;99.90;;;;;;4857485;29;20052;-86
2022/06/05 04:08:41;;;;;;;34.38;23.15;;;11.10;99.90;;;;;;4827301;29;20088;-86
2022/06/05 04:11:12;;;;;;;35.58;25.23;;;11.10;99.90;;;;;;4812575;29;20421;-86
2022/06/05 04:13:38;;;;;;;32.47;24.87;;;11.20;99.90;;;;;;4812141;29;20049;-86
2022/06/05 04:16:15;;;;;;;36.47;25.33;;;11.20;99.90;;;;;;4812483;29;20319;-86
2022/06/05 04:18:41;;;;;;;33.60;24.65;;;11.20;99.90;;;;;;4826777;29;20052;-86
2022/06/05 04:21:15;;;;;;;35.10;23.95;;;11.20;99.90;;;;;;4827822;29;20113;-86
2022/06/05 04:23:41;;;;;;;34.42;23.83;;;11.30;99.90;;;;;;4827302;29;20046;-86
2022/06/05 04:26:09;;;;;;;34.88;24.60;;;11.30;99.90;;;;;;4796798;29;20623;-86
2022/06/05 04:28:36;;;;;;;33.22;23.92;;;11.30;99.90;;;;;;4812105;29;20053;-86
2022/06/05 04:31:02;;;;;;;37.85;26.52;;;11.40;99.90;;;;;;4827536;29;20489;-86
2022/06/05 04:33:28;;;;;;;40.22;27.45;;;11.40;99.90;;;;;;4826261;29;20048;-86
2022/06/05 04:35:53;;;;;;;36.42;25.60;;;11.50;99.90;;;;;;4826682;29;20046;-86
2022/06/05 04:38:19;;;;;;;34.22;23.50;;;11.50;99.90;;;;;;4827210;29;20034;-86
2022/06/05 04:40:45;;;;;;;37.53;25.58;;;11.60;99.90;;;;;;4832201;29;20043;-86
2022/06/05 04:43:11;;;;;;;30.70;24.25;;;11.70;99.90;;;;;;4850144;29;20049;-86
2022/06/05 04:45:36;;;;;;;31.58;24.60;;;11.90;99.90;;;;;;4819829;29;20487;-86
2022/06/05 04:48:02;;;;;;;30.40;22.85;;;11.90;99.90;;;;;;4841371;29;20042;-87
2022/06/05 04:50:28;;;;;;;31.83;22.30;;;12.00;99.90;;;;;;4827266;29;20049;-87
2022/06/05 04:52:53;;;;;;;32.38;24.33;;;12.20;99.90;;;;;;4826508;29;20045;-87
2022/06/05 04:55:20;;;;;;;29.13;22.02;;;12.40;99.90;;;;;;4812043;29;20056;-87
2022/06/05 04:57:46;;;;;;;27.80;22.27;;;12.60;99.90;;;;;;4791987;29;20066;-86
2022/06/05 05:00:12;;;;;;;29.13;21.77;;;12.80;99.90;;;;;;4826728;29;20042;-87
2022/06/05 05:02:38;;;;;;;27.27;21.95;;;13.00;99.90;;;;;;4796253;29;20038;-86
2022/06/05 05:05:05;;;;;;;29.75;23.10;;;13.20;99.90;;;;;;4841594;29;20538;-86
2022/06/05 05:07:31;;;;;;;26.52;21.35;;;13.40;99.90;;;;;;4811554;29;20085;-86
2022/06/05 05:09:56;;;;;;;23.95;20.60;;;13.50;99.90;;;;;;4826388;29;20069;-86
2022/06/05 05:12:22;;;;;;;26.02;20.45;;;13.60;99.90;;;;;;4826778;29;20042;-87
2022/06/05 05:14:48;;;;;;;25.10;20.67;;;13.80;99.90;;;;;;4811893;29;20038;-87
2022/06/05 05:17:14;;;;;;;25.15;20.15;;;13.90;99.90;;;;;;4811199;29;20068;-87
2022/06/05 05:19:40;;;;;;;24.15;19.77;;;14.00;99.90;;;;;;4817743;29;20050;-87
2022/06/05 05:22:06;;;;;;;26.40;20.73;;;14.30;99.90;;;;;;4849332;29;20042;-87
2022/06/05 05:24:31;;;;;;;23.73;18.95;;;14.40;99.90;;;;;;4822201;29;20054;-87
2022/06/05 05:26:57;;;;;;;22.75;18.33;;;14.50;99.90;;;;;;4815856;29;20042;-87
2022/06/05 05:29:23;;;;;;;21.65;18.52;;;14.90;99.90;;;;;;4814446;29;20098;-87
2022/06/05 05:31:50;;;;;;;22.42;18.45;;;15.00;99.90;;;;;;4817832;29;20399;-87
2022/06/05 05:34:16;;;;;;;21.42;18.60;;;14.80;99.90;;;;;;4803977;29;20053;-87
2022/06/05 05:36:42;;;;;;;23.40;18.80;;;14.80;99.90;;;;;;4835109;29;20046;-87
2022/06/05 05:42:09;;;;;;;23.70;18.83;;;14.90;99.90;;;;;;4813691;29;20048;-87
2022/06/05 05:44:44;;;;;;;22.65;18.83;;;15.10;99.90;;;;;;4813489;29;20041;-87
2022/06/05 05:47:18;;;;;;;22.98;17.45;;;15.10;99.90;;;;;;4846480;29;20046;-87
2022/06/05 05:49:44;;;;;;;21.33;17.63;;;15.10;99.90;;;;;;4851910;29;20049;-87
2022/06/05 05:52:11;;;;;;;22.05;16.92;;;15.20;99.90;;;;;;4800129;29;20050;-87
2022/06/05 05:54:37;;;;;;;20.73;18.25;;;15.30;99.90;;;;;;4838863;29;20069;-87
2022/06/05 05:57:04;;;;;;;22.63;17.77;;;15.20;99.90;;;;;;4807249;29;20131;-86
2022/06/05 05:59:31;;;;;;;20.13;17.38;;;15.20;99.90;;;;;;4807321;29;20053;-87
2022/06/05 06:01:57;;;;;;;21.40;17.15;;;15.20;99.90;;;;;;4827360;29;20403;-86
2022/06/05 06:04:22;;;;;;;21.25;17.85;;;15.20;99.90;;;;;;4803400;29;20053;-87
2022/06/05 06:06:49;;;;;;;20.02;17.67;;;15.40;99.90;;;;;;4821517;29;20042;-87
2022/06/05 06:09:16;;;;;;;20.58;17.58;;;15.40;99.90;;;;;;4838614;29;20056;-87
2022/06/05 06:11:42;;;;;;;19.27;16.85;;;15.40;99.90;;;;;;4810643;29;20051;-86
2022/06/05 06:14:08;;;;;;;18.95;16.75;;;15.50;99.90;;;;;;4807843;29;20103;-87
2022/06/05 06:16:35;;;;;;;19.55;17.17;;;15.70;99.90;;;;;;4807483;29;20053;-86
2022/06/05 06:19:01;;;;;;;20.98;16.75;;;15.70;99.90;;;;;;4807210;29;20077;-86
2022/06/05 06:21:28;;;;;;;19.23;16.75;;;15.80;99.90;;;;;;4838000;29;20117;-86
2022/06/05 06:23:53;;;;;;;16.52;14.73;;;15.80;99.90;;;;;;4837871;29;20491;-86
2022/06/05 06:26:19;;;;;;;19.45;15.63;;;16.00;99.90;;;;;;4820259;29;20094;-86
2022/06/05 06:28:45;;;;;;;20.30;16.60;;;16.00;99.90;;;;;;4814556;29;20084;-86
2022/06/05 06:31:14;;;;;;;18.40;14.50;;;16.00;99.90;;;;;;4806732;29;20391;-86
2022/06/05 06:33:40;;;;;;;18.45;15.32;;;16.20;99.90;;;;;;4803300;29;20045;-86
2022/06/05 06:36:09;;;;;;;17.73;14.65;;;16.30;99.90;;;;;;4833316;29;20050;-86
2022/06/05 06:38:35;;;;;;;16.65;14.10;;;16.40;99.90;;;;;;4805158;29;20035;-86
2022/06/05 06:41:02;;;;;;;16.83;15.00;;;16.50;99.90;;;;;;4817529;29;20053;-86
2022/06/05 06:43:28;;;;;;;15.85;13.48;;;16.50;99.90;;;;;;4816076;29;20581;-86
2022/06/05 06:45:54;;;;;;;16.17;13.75;;;16.70;99.90;;;;;;4822265;29;20526;-86
2022/06/05 06:48:21;;;;;;;15.85;13.52;;;16.90;99.90;;;;;;4831916;29;20506;-86
2022/06/05 06:50:47;;;;;;;14.90;12.63;;;17.00;99.90;;;;;;4807254;29;20077;-86
2022/06/05 06:53:13;;;;;;;16.35;14.07;;;17.30;99.90;;;;;;4837315;29;20083;-86
2022/06/05 06:55:39;;;;;;;16.70;14.18;;;17.40;99.90;;;;;;4815686;29;20046;-86
2022/06/05 06:58:04;;;;;;;16.15;13.30;;;17.50;99.90;;;;;;4815528;29;20059;-85
2022/06/05 07:00:30;;;;;;;14.43;12.63;;;17.70;99.90;;;;;;4822805;29;20050;-86
2022/06/05 07:02:56;;;;;;;14.75;12.38;;;17.80;99.90;;;;;;4810298;29;20047;-86
2022/06/05 07:05:22;;;;;;;15.32;12.63;;;18.00;99.90;;;;;;4803222;29;20045;-86
2022/06/05 07:07:47;;;;;;;14.88;12.25;;;18.30;99.90;;;;;;4822605;29;20051;-86
2022/06/05 07:10:13;;;;;;;15.18;12.35;;;18.60;99.90;;;;;;4809312;29;20054;-86
2022/06/05 07:12:39;;;;;;;14.75;11.88;;;18.70;99.90;;;;;;4815118;29;20050;-86
2022/06/05 07:15:06;;;;;;;15.07;11.63;;;18.70;99.90;;;;;;4842897;29;20054;-86
2022/06/05 07:17:33;;;;;;;14.43;12.07;;;18.80;99.90;;;;;;4824739;29;20046;-86
2022/06/05 07:19:59;;;;;;;12.20;10.70;;;18.90;99.90;;;;;;4850913;29;20415;-86
2022/06/05 07:22:25;;;;;;;13.13;10.88;;;19.00;99.90;;;;;;4825612;29;20042;-86
2022/06/05 07:24:51;;;;;;;13.60;10.98;;;19.20;99.90;;;;;;4839962;29;20125;-86
2022/06/05 07:27:18;;;;;;;12.90;11.00;;;19.70;99.90;;;;;;4825529;29;20046;-86
2022/06/05 07:29:43;;;;;;;13.13;10.57;;;19.60;99.90;;;;;;4809982;29;20049;-86
2022/06/05 07:32:11;;;;;;;13.68;9.93;;;19.80;99.90;;;;;;4791358;29;20047;-86
2022/06/05 07:34:37;;;;;;;12.65;10.50;;;19.80;99.90;;;;;;4837047;29;20042;-86
2022/06/05 07:37:03;;;;;;;14.43;10.10;;;20.00;99.90;;;;;;4817219;29;20137;-86
2022/06/05 07:39:29;;;;;;;13.25;9.65;;;20.00;99.90;;;;;;4812810;29;20038;-86
2022/06/05 07:41:58;;;;;;;10.82;9.57;;;20.20;99.90;;;;;;4826916;29;20042;-86
2022/06/05 07:44:25;;;;;;;13.25;9.38;;;20.40;99.90;;;;;;4819556;29;20034;-86
2022/06/05 07:46:51;;;;;;;12.00;9.57;;;20.50;99.90;;;;;;4834435;29;20050;-86
2022/06/05 07:49:17;;;;;;;10.93;9.10;;;20.50;99.90;;;;;;4811703;29;20039;-87
2022/06/05 07:54:33;;;;;;;11.43;9.00;;;20.70;99.90;;;;;;4833376;29;20085;-87
2022/06/05 07:57:13;;;;;;;9.48;8.18;;;20.70;99.90;;;;;;4812314;29;20059;-87
2022/06/05 07:59:41;;;;;;;11.20;8.80;;;20.80;99.90;;;;;;4833683;29;20099;-87
2022/06/05 08:02:11;;;;;;;11.80;8.98;;;20.90;99.90;;;;;;4836415;29;20126;-87
2022/06/05 08:04:38;;;;;;;10.48;8.18;;;20.90;99.90;;;;;;4846877;29;20503;-87
2022/06/05 08:07:05;;;;;;;11.20;8.40;;;20.90;99.90;;;;;;4819491;29;20082;-87
2022/06/05 08:09:33;;;;;;;11.90;8.60;;;21.10;99.80;;;;;;4808820;29;20050;-87
2022/06/05 08:12:00;;;;;;;11.23;8.73;;;21.20;98.80;;;;;;4792665;29;20415;-87
2022/06/05 08:14:37;;;;;;;10.77;8.50;;;21.20;99.50;;;;;;4813231;29;20046;-87
2022/06/05 08:17:04;;;;;;;10.85;8.23;;;21.10;99.90;;;;;;4799690;29;20049;-87
2022/06/05 08:19:30;;;;;;;10.98;7.47;;;21.40;99.40;;;;;;4803878;29;20042;-87
2022/06/05 08:21:56;;;;;;;10.85;8.07;;;21.30;99.20;;;;;;4814259;29;20121;-87
2022/06/05 08:24:24;;;;;;;10.30;8.07;;;21.30;98.50;;;;;;4813443;29;20054;-87
2022/06/05 08:26:51;;;;;;;10.18;7.68;;;21.20;99.70;;;;;;4840390;29;20039;-86
2022/06/05 08:29:18;;;;;;;9.85;7.72;;;21.20;99.90;;;;;;4795024;29;20562;-86
2022/06/05 08:31:45;;;;;;;10.38;7.97;;;21.20;99.70;;;;;;4812864;29;20129;-87
2022/06/05 08:34:14;;;;;;;10.32;8.38;;;21.30;98.60;;;;;;4813086;29;20046;-87
2022/06/05 08:36:41;;;;;;;10.35;7.72;;;21.40;98.70;;;;;;4820025;29;20123;-87
2022/06/05 08:41:53;;;;;;;11.02;8.30;;;21.30;99.60;;;;;;4846400;29;20057;-86
2022/06/05 08:44:30;;;;;;;10.60;8.63;;;21.20;98.80;;;;;;4810732;29;20113;-86
2022/06/05 08:47:04;;;;;;;10.45;8.25;;;21.30;98.50;;;;;;4809427;29;20045;-86
2022/06/05 08:49:36;;;;;;;9.57;7.93;;;21.40;98.90;;;;;;4808577;29;20038;-87
2022/06/05 08:52:15;;;;;;;10.40;7.93;;;21.60;97.20;;;;;;4832355;29;20084;-87
2022/06/05 08:54:51;;;;;;;11.30;7.78;;;21.80;97.20;;;;;;4835451;29;20060;-86
2022/06/05 08:57:22;;;;;;;11.10;8.40;;;21.90;96.90;;;;;;4806177;29;20112;-87
2022/06/05 09:00:16;;;;;;;9.00;7.50;;;21.80;96.40;;;;;;4807843;29;20038;-86
2022/06/05 09:02:48;;;;;;;9.60;7.95;;;21.90;98.60;;;;;;4834508;29;20046;-87
2022/06/05 09:05:30;;;;;;;11.40;7.97;;;22.30;95.50;;;;;;4821571;29;20049;-87
2022/06/05 09:08:08;;;;;;;9.75;7.47;;;22.50;97.30;;;;;;4808444;29;20076;-86
2022/06/05 09:10:43;;;;;;;11.70;7.85;;;22.60;96.70;;;;;;4799596;29;20130;-86
2022/06/05 09:13:24;;;;;;;8.57;7.13;;;22.90;93.80;;;;;;4808354;29;20570;-87
2022/06/05 09:15:57;;;;;;;10.02;7.60;;;22.60;94.10;;;;;;4829920;29;20425;-86
2022/06/05 09:18:27;;;;;;;9.85;8.10;;;22.60;92.90;;;;;;4807887;29;20431;-86
2022/06/05 09:20:56;;;;;;;10.55;7.88;;;22.50;94.50;;;;;;4824069;29;20053;-86
2022/06/05 09:23:27;;;;;;;10.10;7.68;;;22.70;94.90;;;;;;4823514;29;20160;-86
2022/06/05 09:26:02;;;;;;;8.88;7.18;;;22.60;95.90;;;;;;4823190;29;20047;-86
2022/06/05 09:28:39;;;;;;;10.20;7.38;;;22.80;95.00;;;;;;4808184;29;20038;-87
2022/06/05 09:31:20;;;;;;;9.50;7.55;;;22.90;93.80;;;;;;4831738;29;20061;-86
2022/06/05 09:33:48;;;;;;;10.02;7.13;;;23.20;93.60;;;;;;4818787;29;20042;-86
2022/06/05 09:36:18;;;;;;;8.57;7.40;;;23.30;93.30;;;;;;4822957;29;20038;-86
2022/06/05 09:38:49;;;;;;;9.27;7.25;;;23.00;92.30;;;;;;4829400;29;20102;-87
2022/06/05 09:41:46;;;;;;;10.18;7.47;;;23.40;93.40;;;;;;4810682;29;20053;-87
2022/06/05 09:44:36;;;;;;;9.70;7.50;;;23.60;91.20;;;;;;4814864;29;20472;-85
2022/06/05 09:47:08;;;;;;;9.52;7.20;;;23.40;90.20;;;;;;4820825;29;20498;-87
2022/06/05 09:49:49;;;;;;;9.70;7.18;;;23.50;92.00;;;;;;4807671;29;20165;-86
2022/06/05 09:52:16;;;;;;;9.95;7.05;;;23.90;91.10;;;;;;4838339;29;20077;-86
2022/06/05 09:54:55;;;;;;;11.35;6.95;;;23.90;88.60;;;;;;4822249;29;20418;-87
2022/06/05 10:00:37;;;;;;;8.07;6.50;;;23.90;89.40;;;;;;4827351;29;20119;-87
2022/06/05 10:03:06;;;;;;;8.02;6.53;;;24.30;89.80;;;;;;4836621;29;20049;-87
2022/06/05 10:05:34;;;;;;;8.75;6.53;;;24.20;88.90;;;;;;4804503;29;20066;-87
2022/06/05 10:08:20;;;;;;;8.38;6.47;;;24.30;87.10;;;;;;4810091;29;20081;-87
2022/06/05 10:10:47;;;;;;;8.52;6.13;;;24.40;92.60;;;;;;4852627;29;20050;-87
2022/06/05 10:13:58;;;;;;;8.63;6.25;;;24.60;91.80;;;;;;4809080;29;20042;-87
2022/06/05 10:16:51;;;;;;;8.00;6.57;;;24.90;89.20;;;;;;4806768;29;20050;-86
2022/06/05 10:19:29;;;;;;;9.68;6.00;;;25.10;84.60;;;;;;4846821;29;20491;-87
2022/06/05 10:22:10;;;;;;;9.15;6.45;;;25.20;82.90;;;;;;4807709;29;20042;-87
2022/06/05 10:24:52;;;;;;;9.63;6.97;;;25.20;82.20;;;;;;4807540;29;20583;-87
2022/06/05 10:27:19;;;;;;;9.05;6.50;;;25.20;76.80;;;;;;4837674;29;20073;-86
2022/06/05 10:29:52;;;;;;;8.45;6.50;;;25.00;79.80;;;;;;4807029;29;20051;-87
2022/06/05 10:32:28;;;;;;;8.05;6.60;;;25.10;80.40;;;;;;4853260;29;20043;-86
2022/06/05 10:35:18;;;;;;;7.97;6.50;;;25.30;81.30;;;;;;4825771;29;20054;-87
2022/06/05 10:37:49;;;;;;;8.93;6.57;;;25.40;76.30;;;;;;4830570;29;20042;-87
2022/06/05 10:40:39;;;;;;;8.67;7.03;;;25.30;76.00;;;;;;4826267;29;20403;-87
2022/06/05 10:43:13;;;;;;;8.70;6.50;;;25.20;79.40;;;;;;4825758;29;20045;-87
2022/06/05 10:45:47;;;;;;;9.27;6.40;;;25.10;85.00;;;;;;4835116;29;20399;-86
2022/06/05 10:48:46;;;;;;;7.80;6.45;;;25.20;83.00;;;;;;4796774;29;20389;-87
2022/06/05 10:51:28;;;;;;;8.88;7.07;;;25.20;79.40;;;;;;4805602;29;20055;-86
2022/06/05 10:54:17;;;;;;;8.60;6.47;;;25.00;72.30;;;;;;4816762;29;20757;-86
2022/06/05 10:57:11;;;;;;;9.85;6.30;;;24.80;78.30;;;;;;4816608;29;20059;-86
2022/06/05 11:00:14;;;;;;;8.48;6.82;;;25.00;79.30;;;;;;4822111;29;20039;-86
2022/06/05 11:02:58;;;;;;;10.10;7.10;;;25.00;78.20;;;;;;4823205;29;20053;-86
2022/06/05 11:05:39;;;;;;;10.48;6.30;;;25.00;76.60;;;;;;4815453;29;20130;-87
2022/06/05 11:08:36;;;;;;;9.20;6.20;;;25.00;80.00;;;;;;4828381;29;20411;-86
2022/06/05 11:14:28;;;;;;;10.35;6.53;;;24.80;75.50;;;;;;4847409;29;20061;-87
2022/06/05 11:17:02;;;;;;;9.10;6.13;;;24.80;79.00;;;;;;4810555;29;20058;-86
2022/06/05 11:19:46;;;;;;;7.93;6.38;;;24.80;76.80;;;;;;4815514;29;20039;-87
2022/06/05 11:22:15;;;;;;;8.20;6.70;;;24.60;83.60;;;;;;4819383;29;20495;-87
2022/06/05 11:24:45;;;;;;;8.95;6.63;;;24.60;80.00;;;;;;4840371;29;20046;-87
2022/06/05 11:27:16;;;;;;;8.15;5.85;;;24.70;79.40;;;;;;4840713;29;20050;-87
2022/06/05 11:30:11;;;;;;;9.32;6.07;;;24.80;85.30;;;;;;4840946;29;20509;-88
2022/06/05 11:32:42;;;;;;;9.52;6.43;;;25.00;85.90;;;;;;4812519;29;20230;-86
2022/06/05 11:35:51;;;;;;;9.82;6.50;;;25.00;82.80;;;;;;4805524;29;20043;-86
2022/06/05 11:38:29;;;;;;;8.73;6.45;;;24.90;79.80;;;;;;4813471;29;20523;-87
2022/06/05 11:41:10;;;;;;;8.68;6.00;;;25.00;82.00;;;;;;4850213;29;20191;-86
2022/06/05 11:43:39;;;;;;;;;;;24.60;79.50;;;;;;4841855;29;20495;-87
2022/06/05 11:46:10;;;;;;;9.20;6.40;;;24.40;82.20;;;;;;4825855;29;19921;-86
2022/06/05 11:48:45;;;;;;;10.73;6.43;;;24.50;82.20;;;;;;4811214;29;20448;-86
2022/06/05 11:51:21;;;;;;;8.23;6.78;;;24.30;82.20;;;;;;4811553;29;20054;-86
2022/06/05 11:54:19;;;;;;;9.07;6.50;;;24.40;82.20;;;;;;4808802;29;20054;-86
2022/06/05 11:57:04;;;;;;;9.60;6.63;;;24.10;87.10;;;;;;4797344;29;20077;-86
2022/06/05 11:59:39;;;;;;;9.05;6.30;;;24.30;84.60;;;;;;4811540;29;20465;-87
2022/06/05 12:02:22;;;;;;;9.00;6.00;;;24.10;91.10;;;;;;4810536;29;20091;-86
2022/06/05 12:05:05;;;;;;;8.07;6.50;;;24.00;91.50;;;;;;4811147;29;20508;-87
2022/06/05 12:07:32;;;;;;;7.90;6.25;;;24.00;91.30;;;;;;4811651;29;20491;-86
2022/06/05 12:10:16;;;;;;;9.27;6.32;;;24.00;86.10;;;;;;4811098;29;20078;-86
2022/06/05 12:12:47;;;;;;;9.40;6.40;;;24.10;86.30;;;;;;4822897;29;20051;-86
2022/06/05 12:15:31;;;;;;;8.63;6.10;;;23.90;90.20;;;;;;4813182;29;20464;-87
2022/06/05 12:18:14;;;;;;;8.20;6.32;;;23.90;92.30;;;;;;4812313;29;20268;-86
2022/06/05 12:21:13;;;;;;;9.88;6.22;;;24.00;91.30;;;;;;4809424;29;20043;-86
2022/06/05 12:24:02;;;;;;;8.52;6.30;;;24.00;92.80;;;;;;4803435;29;20043;-87
2022/06/05 12:26:44;;;;;;;8.43;6.40;;;24.10;92.30;;;;;;4807352;29;20043;-86
2022/06/05 12:29:31;;;;;;;7.57;5.93;;;24.10;90.50;;;;;;4838682;29;20053;-86
2022/06/05 12:32:25;;;;;;;8.20;5.60;;;23.80;88.00;;;;;;4807730;29;20399;-85
2022/06/05 12:34:59;;;;;;;7.55;5.80;;;23.90;86.40;;;;;;4807933;29;20141;-86
2022/06/05 12:37:51;;;;;;;7.40;5.78;;;23.80;88.70;;;;;;4806903;29;20108;-86
2022/06/05 12:40:31;;;;;;;9.45;6.00;;;23.90;88.70;;;;;;4809542;29;20038;-86
2022/06/05 12:43:41;;;;;;;8.00;5.82;;;23.80;88.50;;;;;;4797901;29;20034;-86
2022/06/05 12:46:21;;;;;;;9.73;6.32;;;23.80;91.00;;;;;;4794278;29;20035;-86
2022/06/05 12:48:47;;;;;;;7.97;6.10;;;24.00;92.00;;;;;;4819232;29;20116;-86
2022/06/05 12:51:21;;;;;;;7.80;6.15;;;24.10;92.60;;;;;;4776394;29;20042;-86
2022/06/05 12:54:01;;;;;;;9.68;6.28;;;24.10;92.90;;;;;;4812785;29;20091;-86
2022/06/05 12:56:50;;;;;;;8.18;5.85;;;24.20;91.20;;;;;;4840644;29;20060;-89
2022/06/05 12:59:24;;;;;;;10.25;6.10;;;24.30;91.60;;;;;;4830630;29;20049;-89
2022/06/05 13:01:58;;;;;;;8.23;5.93;;;24.30;93.60;;;;;;4810105;29;20572;-89
2022/06/05 13:04:36;;;;;;;8.38;5.93;;;24.40;92.20;;;;;;4809705;29;20046;-90
2022/06/05 13:07:05;;;;;;;8.38;5.30;;;24.50;93.70;;;;;;4829850;29;20407;-89
2022/06/05 13:09:47;;;;;;;7.75;5.60;;;24.60;91.20;;;;;;4815510;29;20763;-88
2022/06/05 13:12:32;;;;;;;6.43;5.10;;;24.60;91.00;;;;;;4845845;29;20069;-88
2022/06/05 13:15:15;;;;;;;8.75;5.05;;;24.50;90.20;;;;;;4835409;29;20042;-88
2022/06/05 13:18:17;;;;;;;10.75;5.10;;;24.60;88.50;;;;;;4815268;29;20049;-90
2022/06/05 13:21:17;;;;;;;10.50;4.95;;;24.50;89.70;;;;;;4827792;29;20165;-92